Time;durP1;ratioP1;P1;durP2;ratioP2;P2;SDS_P1;SDS_P2;PMS_P1;PMS_P2;Temp;Humidity;BMP_temperature;BMP_pressure;BME280_temperature;BME280_humidity;BME280_pressure;Samples;Min_cycle;Max_cycle;Signal;HPM_P1;HPM_P2
2023/10/05 00:06:59;;;;;;;2.17;1.10;;;;;;;;;;20723102;28;20210;-66
2023/10/05 00:17:00;;;;;;;2.67;1.17;;;;;;;;;;20717191;28;20645;-66
2023/10/05 00:27:04;;;;;;;3.37;1.20;;;;;;;;;;20706430;28;20215;-66
2023/10/05 00:37:06;;;;;;;2.10;0.93;;;;;;;;;;20727063;28;20219;-66
2023/10/05 00:47:11;;;;;;;3.63;1.10;;;14.30;99.90;;;;;;20702330;28;20297;-66
2023/10/05 00:57:14;;;;;;;2.97;1.13;;;;;;;;;;20688014;28;20239;-66
2023/10/05 01:07:24;;;;;;;2.17;1.17;;;;;;;;;;20681928;28;20227;-66
2023/10/05 01:17:27;;;;;;;2.43;1.00;;;13.60;99.90;;;;;;20690228;28;20218;-66
2023/10/05 01:27:29;;;;;;;1.87;1.10;;;;;;;;;;20698249;28;20211;-66
2023/10/05 01:37:33;;;;;;;2.43;1.37;;;;;;;;;;20694940;28;20676;-66
2023/10/05 01:47:34;;;;;;;2.03;0.90;;;;;;;;;;20693397;28;20219;-66
2023/10/05 01:57:41;;;;;;;2.77;1.40;;;;;;;;;;20725697;28;20249;-66
2023/10/05 02:07:43;;;;;;;2.87;1.30;;;;;;;;;;20708233;28;20211;-66
2023/10/05 02:17:50;;;;;;;3.10;1.03;;;;;;;;;;20694707;28;20222;-66
2023/10/05 02:27:52;;;;;;;2.43;1.30;;;;;;;;;;20690990;28;20203;-66
2023/10/05 02:37:54;;;;;;;1.70;0.80;;;;;;;;;;20677004;28;20301;-66
2023/10/05 02:47:57;;;;;;;2.87;1.10;;;;;;;;;;20673893;28;20285;-66
2023/10/05 02:57:59;;;;;;;2.27;0.97;;;;;;;;;;20690181;28;20222;-66
2023/10/05 03:08:04;;;;;;;1.87;1.13;;;;;;;;;;20722747;28;20289;-66
2023/10/05 03:18:06;;;;;;;1.87;1.00;;;;;;;;;;20703528;28;20647;-66
2023/10/05 03:28:09;;;;;;;2.70;1.13;;;;;;;;;;20701393;28;20223;-66
2023/10/05 03:38:12;;;;;;;2.43;1.10;;;;;;;;;;20676453;28;20700;-66
2023/10/05 03:48:14;;;;;;;3.80;1.53;;;;;;;;;;20691728;28;20278;-65
2023/10/05 03:58:16;;;;;;;3.20;1.20;;;;;;;;;;20680717;28;20288;-66
2023/10/05 04:08:20;;;;;;;1.47;1.00;;;;;;;;;;20702437;28;20226;-66
2023/10/05 04:18:22;;;;;;;2.60;1.00;;;;;;;;;;20705019;28;20290;-65
2023/10/05 04:28:33;;;;;;;2.80;1.07;;;;;;;;;;20708398;28;20207;-65
2023/10/05 04:38:36;;;;;;;2.87;1.33;;;;;;;;;;20699144;28;20296;-65
2023/10/05 04:48:38;;;;;;;3.57;1.30;;;;;;;;;;20688820;28;20215;-65
2023/10/05 04:58:53;;;;;;;3.23;1.17;;;;;;;;;;20693899;28;20231;-65
2023/10/05 05:08:55;;;;;;;2.83;0.87;;;;;;;;;;20697106;28;20207;-65
2023/10/05 05:18:57;;;;;;;2.97;0.97;;;;;;;;;;20695674;28;20266;-65
2023/10/05 05:28:59;;;;;;;2.07;0.87;;;;;;;;;;20709768;28;20211;-65
2023/10/05 05:39:02;;;;;;;1.90;0.90;;;;;;;;;;20696620;28;20219;-65
2023/10/05 05:49:08;;;;;;;1.43;0.90;;;;;;;;;;20693417;28;20587;-65
2023/10/05 05:59:09;;;;;;;3.00;1.10;;;;;;;;;;20753659;23;20274;-78
2023/10/05 06:09:11;;;;;;;2.27;0.80;;;;;;;;;;20735583;28;20203;-78
2023/10/05 06:19:13;;;;;;;1.97;0.97;;;;;;;;;;20724619;28;21392;-77
2023/10/05 06:29:15;;;;;;;3.90;1.27;;;;;;;;;;20769269;28;20269;-77
2023/10/05 06:39:17;;;;;;;2.10;1.00;;;;;;;;;;20756922;28;20215;-77
2023/10/05 06:49:18;;;;;;;2.90;1.23;;;;;;;;;;20762255;28;20272;-78
2023/10/05 06:59:21;;;;;;;2.23;1.10;;;;;;;;;;20749355;28;20277;-78
2023/10/05 07:09:26;;;;;;;3.53;1.30;;;;;;;;;;20699892;28;20603;-78
2023/10/05 07:19:28;;;;;;;3.20;1.20;;;;;;;;;;20744345;28;20738;-78
2023/10/05 07:29:30;;;;;;;2.97;1.33;;;;;;;;;;20750106;28;20215;-78
2023/10/05 07:39:32;;;;;;;2.30;1.27;;;;;;;;;;20774068;28;20264;-78
2023/10/05 07:49:36;;;;;;;3.37;1.13;;;;;;;;;;20735457;28;20226;-78
2023/10/05 07:59:42;;;;;;;3.47;1.43;;;13.20;99.90;;;;;;20770153;28;20223;-77
2023/10/05 08:09:44;;;;;;;4.27;1.23;;;;;;;;;;20758395;28;20218;-78
2023/10/05 08:19:47;;;;;;;2.37;1.37;;;;;;;;;;20756965;28;20231;-78
2023/10/05 08:29:49;;;;;;;5.67;1.50;;;;;;;;;;20789713;28;20202;-77
2023/10/05 08:39:51;;;;;;;2.80;1.13;;;;;;;;;;20775590;28;20233;-78
2023/10/05 08:49:53;;;;;;;4.87;1.37;;;;;;;;;;20788657;28;20207;-76
2023/10/05 08:59:56;;;;;;;2.13;1.00;;;;;;;;;;20740159;28;20210;-77
2023/10/05 09:09:58;;;;;;;5.50;1.20;;;;;;;;;;20746546;28;20680;-76
2023/10/05 09:20:21;;;;;;;6.03;1.70;;;;;;;;;;20748246;28;20613;-76
2023/10/05 09:30:29;;;;;;;2.43;1.40;;;;;;;;;;20747257;28;20216;-76
2023/10/05 09:40:31;;;;;;;3.10;1.50;;;;;;;;;;20750136;28;20307;-77
2023/10/05 09:50:34;;;;;;;2.90;1.40;;;16.10;99.90;;;;;;20784158;28;20547;-77
2023/10/05 10:10:43;;;;;;;3.40;1.13;;;;;;;;;;20737372;28;20218;-75
2023/10/05 10:20:47;;;;;;;2.70;1.17;;;;;;;;;;20730907;28;20269;-77
2023/10/05 10:31:11;;;;;;;2.27;0.80;;;16.60;99.90;;;;;;20751903;28;20757;-76
2023/10/05 10:41:16;;;;;;;1.83;0.90;;;;;;;;;;20754887;28;20272;-76
2023/10/05 10:51:20;;;;;;;3.37;0.93;;;;;;;;;;20773442;28;20715;-76
2023/10/05 11:01:28;;;;;;;1.33;0.60;;;;;;;;;;20730826;28;20210;-76
2023/10/05 11:11:39;;;;;;;1.80;0.70;;;;;;;;;;20764857;28;20715;-77
2023/10/05 11:21:49;;;;;;;10.93;1.57;;;16.40;99.90;;;;;;20781009;28;20222;-77
2023/10/05 11:31:51;;;;;;;1.23;0.70;;;;;;;;;;20790815;28;20272;-77
2023/10/05 11:41:58;;;;;;;4.07;0.80;;;;;;;;;;20789926;28;20317;-77
2023/10/05 11:52:00;;;;;;;2.80;0.83;;;;;;;;;;20760675;28;20214;-77
2023/10/05 12:02:08;;;;;;;1.80;0.90;;;;;;;;;;20783918;28;20198;-77
2023/10/05 12:12:13;;;;;;;2.17;1.20;;;;;;;;;;20764710;28;20312;-76
2023/10/05 12:22:16;;;;;;;2.27;0.90;;;;;;;;;;20784733;23;20325;-76
2023/10/05 12:32:17;;;;;;;1.23;0.57;;;;;;;;;;20916941;28;20309;-76
2023/10/05 12:42:19;;;;;;;2.33;0.90;;;;;;;;;;20914812;28;20287;-76
2023/10/05 12:52:23;;;;;;;3.50;1.00;;;;;;;;;;20918249;28;20210;-76
2023/10/05 13:02:24;;;;;;;3.60;0.67;;;;;;;;;;20887056;28;20209;-76
2023/10/05 13:12:30;;;;;;;1.67;0.73;;;;;;;;;;20910358;28;20221;-76
2023/10/05 13:22:33;;;;;;;1.30;0.50;;;;;;;;;;20909039;28;20244;-76
2023/10/05 13:32:34;;;;;;;0.90;0.40;;;;;;;;;;20904392;28;20627;-75
2023/10/05 13:42:37;;;;;;;2.67;0.50;;;;;;;;;;20894300;28;20209;-76
2023/10/05 13:52:45;;;;;;;0.80;0.47;;;;;;;;;;20876552;28;20222;-76
2023/10/05 14:02:47;;;;;;;2.23;0.97;;;;;;;;;;20897016;28;20279;-77
2023/10/05 14:12:49;;;;;;;1.13;0.60;;;;;;;;;;20915575;28;20213;-76
2023/10/05 14:22:51;;;;;;;1.43;0.60;;;;;;;;;;20928391;28;20230;-76
2023/10/05 14:32:54;;;;;;;1.57;0.50;;;;;;;;;;20903635;28;20244;-77
2023/10/05 14:42:59;;;;;;;1.60;0.60;;;;;;;;;;20882191;28;20232;-76
2023/10/05 14:53:04;;;;;;;2.63;0.70;;;;;;;;;;20899811;28;20229;-76
2023/10/05 15:03:06;;;;;;;5.27;0.77;;;;;;;;;;20912615;28;20209;-77
2023/10/05 15:13:08;;;;;;;1.63;0.70;;;;;;;;;;20885304;28;20214;-77
2023/10/05 15:23:11;;;;;;;1.00;0.63;;;;;;;;;;20903928;28;20270;-76
2023/10/05 15:33:13;;;;;;;2.50;0.70;;;;;;;;;;20886230;28;20694;-76
2023/10/05 15:43:16;;;;;;;1.97;0.80;;;;;;;;;;20898600;28;20287;-76
2023/10/05 15:53:18;;;;;;;2.43;0.90;;;;;;;;;;20873033;28;20269;-77
2023/10/05 16:03:20;;;;;;;3.53;0.70;;;;;;;;;;20890804;28;20255;-77
2023/10/05 16:13:21;;;;;;;1.60;0.80;;;;;;;;;;20902785;28;20218;-77
2023/10/05 16:23:24;;;;;;;1.43;0.70;;;;;;;;;;20891584;28;20226;-76
2023/10/05 16:33:26;;;;;;;1.57;0.70;;;;;;;;;;20871415;28;20644;-76
2023/10/05 16:43:27;;;;;;;2.40;0.90;;;;;;;;;;20898495;28;20688;-77
2023/10/05 16:53:29;;;;;;;4.53;1.20;;;;;;;;;;20774176;28;20271;-76
2023/10/05 17:03:31;;;;;;;3.40;0.77;;;;;;;;;;20903541;28;20214;-77
2023/10/05 17:13:33;;;;;;;3.23;0.90;;;;;;;;;;20851191;28;20491;-76
2023/10/05 17:23:34;;;;;;;2.17;1.20;;;;;;;;;;20899627;28;20218;-76
2023/10/05 17:33:36;;;;;;;3.37;1.80;;;;;;;;;;20887702;28;20295;-76
2023/10/05 17:43:38;;;;;;;3.83;1.20;;;;;;;;;;20870244;28;20218;-76
2023/10/05 17:53:39;;;;;;;2.17;1.10;;;;;;;;;;20890210;28;20218;-76
2023/10/05 18:14:00;;;;;;;1.30;0.77;;;;;;;;;;20922801;28;20279;-86
2023/10/05 18:24:02;;;;;;;2.40;0.93;;;;;;;;;;20900327;28;20209;-87
2023/10/05 18:34:04;;;;;;;2.57;0.90;;;;;;;;;;20893162;28;20290;-87
2023/10/05 18:55:29;;;;;;;2.90;1.37;;;;;;;;;;20913796;28;20221;-87
2023/10/05 19:05:30;;;;;;;3.23;1.00;;;;;;;;;;20899455;28;20237;-87
2023/10/05 19:15:33;;;;;;;1.73;0.90;;;;;;;;;;20916125;28;20217;-86
2023/10/05 19:25:39;;;;;;;2.80;1.10;;;;;;;;;;20907230;28;20272;-86
2023/10/05 19:35:41;;;;;;;2.63;0.97;;;;;;;;;;20906499;28;20247;-88
2023/10/05 19:45:43;;;;;;;2.70;1.30;;;;;;;;;;20899420;28;20274;-87
2023/10/05 19:55:45;;;;;;;1.57;1.00;;;;;;;;;;20904532;28;20761;-88
2023/10/05 20:05:49;;;;;;;1.77;1.30;;;;;;;;;;20905251;28;20776;-89
2023/10/05 20:15:51;;;;;;;2.03;1.30;;;;;;;;;;20888655;28;20271;-87
2023/10/05 20:25:53;;;;;;;3.30;1.60;;;;;;;;;;20931455;28;20271;-89
2023/10/05 20:36:04;;;;;;;2.60;1.53;;;;;;;;;;20888188;28;20221;-89
2023/10/05 20:46:07;;;;;;;1.87;1.20;;;;;;;;;;20901377;28;20218;-88
2023/10/05 20:56:12;;;;;;;2.30;1.50;;;;;;;;;;20913600;28;20248;-86
2023/10/05 21:06:14;;;;;;;3.13;1.50;;;;;;;;;;20918887;28;20221;-88
2023/10/05 21:16:15;;;;;;;3.73;1.50;;;;;;;;;;20917375;28;20234;-87
2023/10/05 21:26:17;;;;;;;1.80;1.00;;;;;;;;;;20916638;28;20214;-86
2023/10/05 21:36:19;;;;;;;2.93;1.40;;;;;;;;;;20887126;28;20256;-88
2023/10/05 21:46:21;;;;;;;2.60;1.40;;;;;;;;;;20880972;28;20275;-87
2023/10/05 21:56:23;;;;;;;3.00;1.30;;;;;;;;;;20913635;28;20243;-88
2023/10/05 22:06:24;;;;;;;2.93;1.33;;;;;;;;;;20872029;28;20279;-87
2023/10/05 22:16:27;;;;;;;1.90;1.00;;;;;;;;;;20882349;28;20244;-87
2023/10/05 22:26:28;;;;;;;2.83;1.00;;;;;;;;;;20897672;28;20240;-87
2023/10/05 22:36:30;;;;;;;2.63;1.10;;;;;;;;;;20933157;28;20251;-87
2023/10/05 22:46:32;;;;;;;1.50;0.90;;;;;;;;;;20893845;28;20258;-87
2023/10/05 22:56:33;;;;;;;2.17;1.00;;;;;;;;;;20908822;28;20294;-87
2023/10/05 23:06:35;;;;;;;1.77;0.90;;;;;;;;;;20898669;28;20299;-87
2023/10/05 23:16:37;;;;;;;2.27;0.90;;;;;;;;;;20922948;28;20222;-87
2023/10/05 23:26:40;;;;;;;1.73;1.00;;;;;;;;;;20914783;28;20236;-87
2023/10/05 23:36:44;;;;;;;1.57;0.80;;;;;;;;;;20893424;28;20606;-88
2023/10/05 23:46:47;;;;;;;2.30;0.93;;;;;;;;;;20855318;28;20233;-87
2023/10/05 23:56:51;;;;;;;1.47;0.70;;;;;;;;;;20936993;28;20260;-87
